Time;durP1;ratioP1;P1;durP2;ratioP2;P2;SDS_P1;SDS_P2;PMS_P1;PMS_P2;Temp;Humidity;BMP_temperature;BMP_pressure;BME280_temperature;BME280_humidity;BME280_pressure;Samples;Min_cycle;Max_cycle;Signal;HPM_P1;HPM_P2
2024/02/12 00:01:45;;;;;;;9.00;4.82;;;7.90;99.90;;;;;;4879394;29;20041;-78
2024/02/12 00:04:14;;;;;;;8.98;3.65;;;7.90;99.90;;;;;;4877389;29;20398;-78
2024/02/12 00:06:43;;;;;;;8.40;3.50;;;7.80;99.90;;;;;;4875619;29;20501;-78
2024/02/12 00:09:12;;;;;;;8.65;4.20;;;7.70;99.90;;;;;;4882645;29;20045;-78
2024/02/12 00:11:45;;;;;;;6.38;3.17;;;7.70;99.90;;;;;;4883121;29;20048;-78
2024/02/12 00:14:12;;;;;;;;;;;7.60;99.90;;;;;;4899771;29;20044;-78
2024/02/12 00:16:40;;;;;;;6.70;3.20;;;7.50;99.90;;;;;;4867300;29;19961;-78
2024/02/12 00:19:10;;;;;;;9.65;4.40;;;7.40;99.90;;;;;;4882660;29;20084;-78
2024/02/12 00:21:39;;;;;;;9.57;5.13;;;7.40;99.90;;;;;;4898172;29;20047;-78
2024/02/12 00:24:06;;;;;;;10.15;4.43;;;7.40;99.90;;;;;;4898072;29;20047;-78
2024/02/12 00:26:33;;;;;;;8.93;4.07;;;7.40;99.90;;;;;;4898017;29;20048;-78
2024/02/12 00:29:01;;;;;;;8.30;4.20;;;7.40;99.90;;;;;;4897619;29;20489;-78
2024/02/12 00:31:28;;;;;;;10.15;4.20;;;7.40;99.90;;;;;;4897926;29;20044;-78
2024/02/12 00:33:56;;;;;;;11.15;5.15;;;7.40;99.90;;;;;;4897968;29;20052;-78
2024/02/12 00:36:24;;;;;;;12.65;6.13;;;7.40;99.90;;;;;;4897891;29;20406;-78
2024/02/12 00:38:51;;;;;;;16.00;6.75;;;7.50;99.90;;;;;;4882243;29;20045;-79
2024/02/12 00:41:22;;;;;;;13.07;6.68;;;7.60;99.90;;;;;;4897788;29;20636;-78
2024/02/12 00:43:51;;;;;;;15.95;7.05;;;7.60;99.90;;;;;;4883523;29;20048;-78
2024/02/12 00:46:19;;;;;;;14.27;6.82;;;7.70;99.90;;;;;;4902239;29;20044;-78
2024/02/12 00:48:46;;;;;;;14.63;7.30;;;7.70;99.90;;;;;;4898330;29;20053;-78
2024/02/12 00:51:15;;;;;;;15.20;7.60;;;7.80;99.90;;;;;;4897562;29;20486;-78
2024/02/12 00:53:45;;;;;;;13.52;6.75;;;7.80;99.90;;;;;;4898793;29;20074;-78
2024/02/12 00:56:15;;;;;;;13.65;7.55;;;7.90;99.90;;;;;;4897583;29;20413;-78
2024/02/12 00:58:45;;;;;;;17.75;8.90;;;7.90;99.90;;;;;;4882232;29;20068;-78
2024/02/12 01:01:13;;;;;;;13.73;7.57;;;7.90;99.90;;;;;;4897256;29;20093;-78
2024/02/12 01:03:41;;;;;;;16.27;9.15;;;7.90;99.90;;;;;;4881954;29;20052;-78
2024/02/12 01:06:08;;;;;;;17.63;9.75;;;7.90;99.90;;;;;;4881814;29;20417;-78
2024/02/12 01:08:38;;;;;;;20.67;9.98;;;7.90;99.90;;;;;;4878549;29;20049;-78
2024/02/12 01:11:07;;;;;;;;;;;7.90;99.90;;;;;;4882695;29;20101;-78
2024/02/12 01:13:35;;;;;;;20.50;10.13;;;7.90;99.90;;;;;;4880856;29;20380;-78
2024/02/12 01:16:02;;;;;;;22.23;11.50;;;7.90;99.90;;;;;;4881568;29;20139;-78
2024/02/12 01:18:29;;;;;;;19.50;11.25;;;7.90;99.90;;;;;;4863007;29;20060;-78
2024/02/12 01:20:57;;;;;;;23.27;12.10;;;7.90;99.90;;;;;;4863217;29;20084;-78
2024/02/12 01:23:25;;;;;;;24.20;12.60;;;8.00;99.90;;;;;;4881409;29;20064;-78
2024/02/12 01:25:53;;;;;;;24.90;12.48;;;8.00;99.90;;;;;;4897913;29;20135;-79
2024/02/12 01:28:20;;;;;;;27.10;12.45;;;8.00;99.90;;;;;;4896720;29;20060;-78
2024/02/12 01:30:47;;;;;;;20.58;11.40;;;8.00;99.90;;;;;;4896883;29;20052;-78
2024/02/12 01:33:16;;;;;;;22.98;11.90;;;8.00;99.90;;;;;;4864700;29;20045;-78
2024/02/12 01:35:43;;;;;;;21.52;12.05;;;8.00;99.90;;;;;;4881555;29;20048;-78
2024/02/12 01:38:11;;;;;;;22.73;12.32;;;8.00;99.90;;;;;;4896886;29;20127;-78
2024/02/12 01:40:39;;;;;;;25.25;13.50;;;8.00;99.90;;;;;;4881095;29;20048;-78
2024/02/12 01:43:07;;;;;;;25.92;13.38;;;8.00;99.90;;;;;;4881398;29;20049;-78
2024/02/12 01:45:34;;;;;;;23.73;13.35;;;8.00;99.90;;;;;;4896964;29;20048;-78
2024/02/12 01:48:06;;;;;;;28.08;14.57;;;8.00;99.90;;;;;;4896663;29;20409;-78
2024/02/12 01:50:33;;;;;;;28.77;14.57;;;8.00;99.90;;;;;;4881825;29;20402;-78
2024/02/12 01:53:01;;;;;;;25.20;12.35;;;8.00;99.90;;;;;;4881231;29;20059;-78
2024/02/12 01:55:29;;;;;;;30.10;13.18;;;8.00;99.90;;;;;;4897904;29;20124;-78
2024/02/12 01:57:57;;;;;;;24.17;13.38;;;8.00;99.90;;;;;;4896658;29;20067;-78
2024/02/12 02:00:27;;;;;;;25.73;13.25;;;8.00;99.90;;;;;;4881317;29;20401;-78
2024/02/12 02:03:17;;;;;;;28.80;15.07;;;8.00;99.90;;;;;;4868327;29;20056;-78
2024/02/12 02:05:45;;;;;;;23.20;13.38;;;8.00;99.90;;;;;;4848613;29;20048;-78
2024/02/12 02:08:12;;;;;;;27.33;13.18;;;8.00;99.90;;;;;;4865849;29;20499;-78
2024/02/12 02:10:39;;;;;;;21.90;12.60;;;8.00;99.90;;;;;;4896348;29;20053;-78
2024/02/12 02:13:06;;;;;;;23.35;12.75;;;8.00;99.90;;;;;;4881357;29;20048;-78
2024/02/12 02:15:34;;;;;;;22.58;12.57;;;8.00;99.90;;;;;;4897646;29;20045;-78
2024/02/12 02:18:03;;;;;;;21.55;12.38;;;8.00;99.90;;;;;;4881173;29;20147;-78
2024/02/12 02:20:31;;;;;;;19.42;10.80;;;8.00;99.90;;;;;;4897528;29;20044;-77
2024/02/12 02:22:59;;;;;;;18.35;10.27;;;8.00;99.90;;;;;;4896312;29;20125;-78
2024/02/12 02:25:27;;;;;;;19.42;10.55;;;8.00;99.90;;;;;;4868309;29;20071;-77
2024/02/12 02:27:54;;;;;;;20.98;10.90;;;8.10;99.90;;;;;;4884579;29;20104;-78
2024/02/12 02:30:21;;;;;;;20.75;12.00;;;8.10;99.90;;;;;;4868919;29;20049;-78
2024/02/12 02:32:49;;;;;;;25.35;12.00;;;8.10;99.90;;;;;;4899807;29;20056;-77
2024/02/12 02:35:17;;;;;;;25.08;12.68;;;8.10;99.90;;;;;;4869038;29;20521;-78
2024/02/12 02:37:44;;;;;;;22.48;13.38;;;8.10;99.90;;;;;;4884417;29;20072;-78
2024/02/12 02:40:11;;;;;;;21.30;12.68;;;8.10;99.90;;;;;;4884248;29;20060;-78
2024/02/12 02:42:38;;;;;;;23.77;13.52;;;8.10;99.90;;;;;;4884484;29;20119;-77
2024/02/12 02:45:09;;;;;;;25.63;13.93;;;8.10;99.90;;;;;;4899701;29;20052;-77
2024/02/12 02:47:37;;;;;;;23.48;12.38;;;8.20;99.90;;;;;;4884143;29;20053;-77
2024/02/12 02:50:05;;;;;;;20.58;11.52;;;8.20;99.90;;;;;;4899596;29;20068;-77
2024/02/12 02:52:34;;;;;;;20.35;12.15;;;8.20;99.90;;;;;;4884072;29;20486;-78
2024/02/12 02:55:02;;;;;;;25.70;13.65;;;8.20;99.90;;;;;;4884452;29;20087;-78
2024/02/12 02:57:29;;;;;;;27.17;12.23;;;8.20;99.90;;;;;;4899447;29;20044;-78
2024/02/12 02:59:56;;;;;;;23.80;13.35;;;8.20;99.90;;;;;;4884006;29;20068;-78
2024/02/12 03:02:23;;;;;;;26.33;14.13;;;8.20;99.90;;;;;;4883977;29;20041;-78
2024/02/12 03:04:50;;;;;;;27.05;13.20;;;8.20;99.90;;;;;;4880923;29;20056;-78
2024/02/12 03:07:17;;;;;;;26.77;14.63;;;8.20;99.90;;;;;;4880328;29;20151;-78
2024/02/12 03:09:44;;;;;;;28.90;13.50;;;8.20;99.90;;;;;;4883832;29;20052;-77
2024/02/12 03:12:12;;;;;;;30.17;14.20;;;8.20;99.90;;;;;;4899355;29;20044;-78
2024/02/12 03:14:40;;;;;;;34.33;16.13;;;8.20;99.90;;;;;;4899228;29;20097;-78
2024/02/12 03:17:07;;;;;;;28.67;15.80;;;8.10;99.90;;;;;;4883698;29;20056;-77
2024/02/12 03:19:35;;;;;;;34.00;15.90;;;8.20;99.90;;;;;;4899118;29;20132;-77
2024/02/12 03:22:03;;;;;;;30.77;14.45;;;8.20;99.90;;;;;;4900414;29;20045;-77
2024/02/12 03:24:30;;;;;;;30.98;14.75;;;8.10;99.90;;;;;;4880459;29;20077;-78
2024/02/12 03:26:58;;;;;;;33.08;14.77;;;8.10;99.90;;;;;;4894934;29;20055;-77
2024/02/12 03:29:27;;;;;;;29.08;15.50;;;8.10;99.90;;;;;;4883489;29;20052;-77
2024/02/12 03:31:54;;;;;;;28.73;15.70;;;8.10;99.90;;;;;;4898813;29;20123;-77
2024/02/12 03:34:21;;;;;;;27.70;13.60;;;8.10;99.90;;;;;;4883634;29;20059;-76
2024/02/12 03:36:48;;;;;;;30.08;14.43;;;8.10;99.90;;;;;;4882452;29;20108;-76
2024/02/12 03:39:15;;;;;;;28.38;13.77;;;8.10;99.90;;;;;;4880153;29;20053;-76
2024/02/12 03:41:42;;;;;;;26.23;13.20;;;8.10;99.90;;;;;;4863515;29;20112;-76
2024/02/12 03:44:09;;;;;;;29.70;14.85;;;8.00;99.90;;;;;;4883254;29;20040;-76
2024/02/12 03:46:39;;;;;;;29.88;14.27;;;8.00;99.90;;;;;;4867724;29;20091;-76
2024/02/12 04:00:18;;;;;;;28.15;14.07;;;7.80;99.90;;;;;;4901118;29;20498;-85
2024/02/12 04:02:46;;;;;;;27.58;14.07;;;7.80;99.90;;;;;;4885232;29;20055;-85
2024/02/12 04:05:14;;;;;;;26.98;12.25;;;7.80;99.90;;;;;;4900086;29;20159;-85
2024/02/12 04:07:41;;;;;;;21.98;11.38;;;7.70;99.90;;;;;;4899731;29;20108;-85
2024/02/12 04:10:12;;;;;;;17.98;9.30;;;7.70;99.90;;;;;;4884332;29;20064;-86
2024/02/12 04:12:43;;;;;;;15.13;7.78;;;7.70;99.90;;;;;;4899681;29;20032;-85
2024/02/12 04:15:15;;;;;;;13.37;6.57;;;7.60;99.90;;;;;;4900390;29;20048;-85
2024/02/12 04:17:43;;;;;;;13.20;6.07;;;7.60;99.90;;;;;;4884912;29;20045;-84
2024/02/12 04:20:11;;;;;;;13.18;6.25;;;7.50;99.90;;;;;;4883789;29;20045;-85
2024/02/12 04:22:39;;;;;;;12.55;6.35;;;7.50;99.90;;;;;;4899231;29;20052;-85
2024/02/12 04:25:07;;;;;;;13.75;6.55;;;7.50;99.90;;;;;;4898571;29;20056;-85
2024/02/12 04:27:34;;;;;;;12.80;5.95;;;7.50;99.90;;;;;;4868423;29;20068;-85
2024/02/12 04:30:04;;;;;;;15.32;7.93;;;7.50;99.90;;;;;;4899199;29;20062;-85
2024/02/12 04:32:33;;;;;;;16.20;7.55;;;7.40;99.90;;;;;;4898839;29;20051;-85
2024/02/12 04:35:02;;;;;;;23.17;10.70;;;7.50;99.90;;;;;;4898906;29;20127;-84
2024/02/12 04:37:32;;;;;;;25.13;12.77;;;7.50;99.90;;;;;;4883600;29;20128;-85
2024/02/12 04:40:03;;;;;;;33.35;16.95;;;7.50;99.90;;;;;;4904609;29;20075;-85
2024/02/12 04:42:30;;;;;;;35.58;17.65;;;7.50;99.90;;;;;;4885969;29;20084;-85
2024/02/12 04:44:57;;;;;;;33.75;17.38;;;7.50;99.90;;;;;;4914755;29;20055;-85
2024/02/12 04:47:24;;;;;;;31.83;15.38;;;7.40;99.90;;;;;;4892856;29;20060;-85
2024/02/12 04:49:52;;;;;;;30.50;15.00;;;7.40;99.90;;;;;;4892218;29;20055;-85
2024/02/12 04:52:19;;;;;;;33.78;17.02;;;7.30;99.90;;;;;;4871392;29;20048;-85
2024/02/12 04:54:46;;;;;;;32.97;16.00;;;7.30;99.90;;;;;;4885892;29;20383;-85
2024/02/12 04:57:13;;;;;;;32.63;14.50;;;7.30;99.90;;;;;;4883925;29;20051;-85
2024/02/12 04:59:40;;;;;;;37.47;17.42;;;7.20;99.90;;;;;;4867972;29;20422;-85
2024/02/12 05:02:08;;;;;;;29.00;14.93;;;7.20;99.90;;;;;;4883622;29;20052;-85
2024/02/12 05:04:35;;;;;;;25.05;12.60;;;7.10;99.90;;;;;;4883622;29;20044;-85
2024/02/12 05:07:03;;;;;;;24.80;11.75;;;7.10;99.90;;;;;;4880317;29;20060;-85
2024/02/12 05:09:30;;;;;;;26.75;13.18;;;7.10;99.90;;;;;;4882887;29;20049;-85
2024/02/12 05:11:57;;;;;;;23.08;11.30;;;7.00;99.90;;;;;;4882646;29;20045;-85
2024/02/12 05:14:26;;;;;;;27.80;13.20;;;7.00;99.90;;;;;;4880319;29;20049;-85
2024/02/12 05:16:59;;;;;;;23.15;11.70;;;6.90;99.90;;;;;;4878341;29;20040;-85
2024/02/12 05:24:58;;;;;;;24.27;11.85;;;6.80;99.90;;;;;;4874314;29;20059;-85
2024/02/12 05:27:26;;;;;;;25.77;12.48;;;6.70;99.90;;;;;;4898110;29;20094;-85
2024/02/12 05:29:55;;;;;;;21.63;11.63;;;6.80;99.90;;;;;;4898046;29;20393;-85
2024/02/12 05:32:23;;;;;;;30.20;15.27;;;6.80;99.90;;;;;;4899363;29;20052;-85
2024/02/12 05:34:51;;;;;;;26.05;13.10;;;6.90;99.90;;;;;;4882872;29;20040;-85
2024/02/12 05:37:22;;;;;;;29.35;14.15;;;6.90;99.90;;;;;;4898087;29;20147;-84
2024/02/12 05:39:49;;;;;;;26.83;13.27;;;6.80;99.90;;;;;;4867347;29;20052;-85
2024/02/12 05:42:17;;;;;;;33.25;15.75;;;6.80;99.90;;;;;;4879843;29;20387;-85
2024/02/12 05:44:45;;;;;;;32.38;16.38;;;6.80;99.90;;;;;;4864105;29;20049;-85
2024/02/12 05:47:12;;;;;;;31.13;14.73;;;6.70;99.90;;;;;;4875810;29;20032;-84
2024/02/12 05:49:40;;;;;;;32.45;15.52;;;6.70;99.90;;;;;;4899429;29;20047;-84
2024/02/12 05:52:08;;;;;;;25.50;13.40;;;6.70;99.90;;;;;;4897541;29;20092;-84
2024/02/12 05:54:36;;;;;;;30.25;13.98;;;6.60;99.90;;;;;;4879420;29;20108;-83
2024/02/12 05:57:04;;;;;;;26.88;14.23;;;6.60;99.90;;;;;;4879074;29;20455;-84
2024/02/12 05:59:33;;;;;;;25.15;11.82;;;6.60;99.90;;;;;;4882028;29;20048;-84
2024/02/12 06:02:04;;;;;;;23.05;11.45;;;6.60;99.90;;;;;;4902624;29;20048;-84
2024/02/12 06:04:32;;;;;;;19.95;9.20;;;6.50;99.90;;;;;;4902108;29;20055;-84
2024/02/12 06:06:59;;;;;;;19.45;9.65;;;6.40;99.90;;;;;;4886144;29;20055;-85
2024/02/12 06:09:28;;;;;;;20.75;9.48;;;6.40;99.90;;;;;;4884148;29;20055;-84
2024/02/12 06:11:55;;;;;;;21.15;11.05;;;6.40;99.90;;;;;;4885952;29;20535;-84
2024/02/12 06:14:22;;;;;;;17.65;8.77;;;6.40;99.90;;;;;;4901081;29;20088;-84
2024/02/12 06:16:49;;;;;;;15.85;7.35;;;6.50;99.90;;;;;;4886062;29;20123;-84
2024/02/12 06:19:16;;;;;;;18.05;7.45;;;6.50;99.90;;;;;;4885662;29;20049;-84
2024/02/12 06:21:47;;;;;;;16.20;6.60;;;6.60;99.90;;;;;;4886088;29;20045;-84
2024/02/12 06:24:14;;;;;;;17.13;7.10;;;6.60;99.90;;;;;;4884671;29;20045;-84
2024/02/12 06:26:42;;;;;;;20.30;10.13;;;6.70;99.90;;;;;;4902090;29;20072;-84
2024/02/12 06:29:11;;;;;;;23.75;10.63;;;6.70;99.90;;;;;;4900877;29;20048;-84
2024/02/12 06:31:42;;;;;;;29.23;11.63;;;6.80;99.90;;;;;;4901227;29;20059;-84
2024/02/12 06:34:10;;;;;;;23.95;10.52;;;6.80;99.90;;;;;;4886043;29;20490;-84
2024/02/12 06:36:37;;;;;;;21.83;9.77;;;6.80;99.90;;;;;;4901207;29;20044;-84
2024/02/12 06:39:05;;;;;;;22.10;11.25;;;6.80;99.90;;;;;;4901066;29;20045;-84
2024/02/12 06:41:32;;;;;;;22.35;10.23;;;6.90;99.90;;;;;;4901736;29;20052;-84
2024/02/12 06:44:01;;;;;;;22.15;9.95;;;6.90;99.90;;;;;;4900850;29;20379;-84
2024/02/12 06:46:28;;;;;;;21.08;8.88;;;6.90;99.90;;;;;;4900944;29;20044;-84
2024/02/12 06:48:55;;;;;;;23.30;10.93;;;6.90;99.90;;;;;;4900699;29;20112;-84
2024/02/12 06:51:22;;;;;;;20.65;8.88;;;7.00;99.90;;;;;;4901750;29;20100;-84
2024/02/12 06:53:49;;;;;;;21.58;8.55;;;7.00;99.90;;;;;;4869439;29;20044;-84
2024/02/12 06:56:16;;;;;;;19.05;8.00;;;7.00;99.90;;;;;;4885223;29;20048;-83
2024/02/12 06:58:43;;;;;;;22.73;9.90;;;7.00;99.90;;;;;;4900251;29;20139;-84
2024/02/12 07:01:12;;;;;;;21.95;9.55;;;7.00;99.90;;;;;;4901332;29;20048;-83
2024/02/12 07:03:41;;;;;;;20.77;9.77;;;7.00;99.90;;;;;;4900679;29;20389;-83
2024/02/12 07:06:11;;;;;;;22.85;10.80;;;7.10;99.90;;;;;;4884869;29;20048;-83
2024/02/12 07:08:42;;;;;;;20.30;9.20;;;7.10;99.90;;;;;;4884701;29;20053;-83
2024/02/12 07:11:16;;;;;;;22.77;11.00;;;7.10;99.90;;;;;;4898586;29;20072;-83
2024/02/12 07:13:43;;;;;;;22.77;9.75;;;7.00;99.90;;;;;;4869328;29;20048;-84
2024/02/12 07:16:17;;;;;;;21.83;10.43;;;7.10;99.90;;;;;;4881144;29;20041;-83
2024/02/12 07:18:48;;;;;;;24.67;11.38;;;7.10;99.90;;;;;;4881063;29;20498;-84
2024/02/12 07:21:15;;;;;;;28.15;13.05;;;7.10;99.90;;;;;;4884697;29;20053;-83
2024/02/12 07:23:43;;;;;;;36.10;14.65;;;7.10;99.90;;;;;;4868682;29;20147;-84
2024/02/12 07:26:10;;;;;;;32.30;14.18;;;7.10;99.90;;;;;;4884218;29;20069;-84
2024/02/12 07:28:38;;;;;;;29.77;13.45;;;7.20;99.90;;;;;;4869044;29;20044;-82
2024/02/12 07:31:07;;;;;;;31.27;13.05;;;7.20;99.90;;;;;;4884128;29;20052;-84
2024/02/12 07:33:35;;;;;;;28.80;13.48;;;7.20;99.90;;;;;;4884410;29;20051;-84
2024/02/12 07:36:06;;;;;;;26.45;11.98;;;7.20;99.90;;;;;;4901125;29;20451;-83
2024/02/12 07:38:33;;;;;;;28.20;11.95;;;7.20;99.90;;;;;;4884188;29;20135;-84
2024/02/12 07:41:01;;;;;;;30.83;12.88;;;7.30;99.90;;;;;;4899149;29;20057;-83
2024/02/12 07:43:29;;;;;;;30.90;12.65;;;7.30;99.90;;;;;;4899381;29;20051;-84
2024/02/12 07:45:56;;;;;;;24.63;11.18;;;7.30;99.90;;;;;;4900378;29;20105;-84
2024/02/12 07:48:28;;;;;;;26.85;12.00;;;7.30;99.90;;;;;;4899339;29;20053;-84
2024/02/12 07:50:55;;;;;;;25.48;12.23;;;7.30;99.90;;;;;;4898907;29;20048;-84
2024/02/12 07:53:25;;;;;;;25.83;11.70;;;7.30;99.90;;;;;;4900720;29;20430;-84
2024/02/12 07:55:53;;;;;;;21.58;10.45;;;7.30;99.90;;;;;;4900060;29;20044;-84
2024/02/12 07:58:20;;;;;;;25.45;11.68;;;7.40;99.90;;;;;;4883534;29;20044;-84
2024/02/12 08:00:51;;;;;;;24.40;10.82;;;7.40;99.90;;;;;;4899181;29;20116;-83
2024/02/12 08:03:20;;;;;;;19.83;9.95;;;7.40;99.90;;;;;;4899119;29;20048;-84
2024/02/12 08:05:48;;;;;;;24.67;11.20;;;7.40;99.90;;;;;;4900134;29;20124;-83
2024/02/12 08:08:16;;;;;;;19.83;9.07;;;7.50;99.90;;;;;;4883069;29;20142;-83
2024/02/12 08:10:46;;;;;;;16.48;9.05;;;7.50;99.90;;;;;;4899782;29;20036;-84
2024/02/12 08:13:13;;;;;;;19.63;8.98;;;7.60;99.90;;;;;;4898851;29;20124;-84
2024/02/12 08:15:41;;;;;;;25.65;11.40;;;7.60;99.90;;;;;;4899611;29;20076;-83
2024/02/12 08:18:09;;;;;;;27.50;12.25;;;7.60;99.90;;;;;;4899629;29;20127;-83
2024/02/12 08:20:36;;;;;;;27.33;13.02;;;7.60;99.90;;;;;;4898632;29;20393;-83
2024/02/12 08:23:04;;;;;;;30.35;14.25;;;7.70;99.90;;;;;;4899587;29;20052;-83
2024/02/12 08:25:31;;;;;;;28.27;13.13;;;7.70;99.90;;;;;;4882846;29;20044;-83
2024/02/12 08:27:58;;;;;;;27.90;13.85;;;7.70;99.90;;;;;;4898146;29;20147;-83
2024/02/12 08:30:25;;;;;;;26.73;13.73;;;7.70;99.90;;;;;;4897806;29;20045;-83
2024/02/12 08:32:52;;;;;;;30.98;13.88;;;7.80;99.90;;;;;;4898277;29;20067;-83
2024/02/12 08:35:20;;;;;;;33.00;14.38;;;7.80;99.90;;;;;;4867292;29;20040;-81
2024/02/12 08:37:48;;;;;;;27.13;14.77;;;7.80;99.90;;;;;;4897935;29;20044;-83
2024/02/12 08:40:16;;;;;;;34.30;16.75;;;7.80;99.90;;;;;;4898095;29;20060;-80
2024/02/12 08:42:50;;;;;;;32.75;16.52;;;7.80;99.90;;;;;;4898187;29;20155;-81
2024/02/12 08:45:17;;;;;;;30.25;14.00;;;7.90;99.90;;;;;;4904692;29;20148;-84
2024/02/12 08:47:44;;;;;;;32.30;15.38;;;8.00;99.90;;;;;;4893827;29;20076;-83
2024/02/12 08:50:11;;;;;;;33.80;15.55;;;8.00;99.90;;;;;;4895601;29;20054;-80
2024/02/12 08:52:38;;;;;;;29.98;14.68;;;8.10;99.90;;;;;;4900866;29;20045;-81
2024/02/12 08:55:10;;;;;;;26.52;13.50;;;8.20;99.90;;;;;;4898930;29;20041;-80
2024/02/12 08:57:43;;;;;;;30.45;14.18;;;8.20;99.90;;;;;;4885727;29;20112;-81
2024/02/12 09:00:12;;;;;;;26.73;14.18;;;8.20;99.90;;;;;;4899010;29;20048;-81
2024/02/12 09:02:40;;;;;;;34.85;15.82;;;8.30;99.90;;;;;;4898046;29;20056;-84
2024/02/12 09:05:11;;;;;;;34.58;16.67;;;8.30;99.90;;;;;;4897586;29;20040;-81
2024/02/12 09:07:39;;;;;;;36.25;16.50;;;8.20;99.90;;;;;;4883000;29;20079;-81
2024/02/12 09:10:07;;;;;;;28.63;14.63;;;8.20;99.90;;;;;;4899248;29;20068;-81
2024/02/12 09:12:37;;;;;;;30.90;15.77;;;8.30;99.90;;;;;;4878572;29;20071;-81
2024/02/12 09:15:19;;;;;;;31.90;17.17;;;8.30;99.90;;;;;;4878751;29;20124;-81
2024/02/12 09:17:47;;;;;;;34.75;17.48;;;8.40;99.90;;;;;;4867542;29;20072;-81
2024/02/12 09:20:14;;;;;;;35.95;18.42;;;8.40;99.90;;;;;;4897231;29;20421;-82
2024/02/12 09:22:42;;;;;;;44.45;20.83;;;8.40;99.90;;;;;;4898318;29;20055;-83
2024/02/12 09:25:13;;;;;;;38.92;20.58;;;8.40;99.90;;;;;;4897092;29;20462;-81
2024/02/12 09:27:45;;;;;;;39.75;20.15;;;8.40;99.90;;;;;;4878563;29;20073;-81
2024/02/12 09:30:15;;;;;;;33.05;19.08;;;8.30;99.90;;;;;;4897274;29;20049;-81
2024/02/12 09:32:46;;;;;;;38.88;20.00;;;8.40;99.90;;;;;;4881575;29;20417;-80
2024/02/12 09:35:17;;;;;;;40.15;19.52;;;8.40;99.90;;;;;;4896373;29;20494;-80
2024/02/12 09:37:46;;;;;;;44.58;23.13;;;8.30;99.90;;;;;;4896909;29;20115;-80
2024/02/12 09:40:15;;;;;;;40.60;21.13;;;8.30;99.90;;;;;;4897919;29;20565;-81
2024/02/12 09:42:43;;;;;;;39.00;19.85;;;8.30;99.90;;;;;;4897221;29;20047;-81
2024/02/12 09:45:11;;;;;;;43.20;20.55;;;8.30;99.90;;;;;;4883029;29;20043;-84
2024/02/12 09:47:43;;;;;;;39.90;21.30;;;8.40;99.90;;;;;;4867314;29;20485;-82
2024/02/12 09:50:12;;;;;;;;;;;8.40;99.90;;;;;;4883326;29;20114;-80
2024/02/12 09:52:43;;;;;;;42.15;19.60;;;8.40;99.90;;;;;;4897268;29;19923;-80
2024/02/12 09:55:12;;;;;;;41.60;22.65;;;8.40;99.90;;;;;;4896575;29;20080;-86
2024/02/12 09:57:39;;;;;;;45.25;22.75;;;8.40;99.90;;;;;;4896977;29;20143;-85
2024/02/12 10:00:07;;;;;;;45.63;22.02;;;8.40;99.90;;;;;;4852029;29;20053;-86
2024/02/12 10:02:41;;;;;;;43.70;21.25;;;8.40;99.90;;;;;;4882439;29;20059;-86
2024/02/12 10:05:20;;;;;;;36.78;18.90;;;8.40;99.90;;;;;;4882278;29;20057;-85
2024/02/12 10:07:47;;;;;;;37.78;19.63;;;8.50;99.90;;;;;;4864108;29;20052;-85
2024/02/12 10:10:17;;;;;;;40.03;20.20;;;8.40;99.90;;;;;;4871966;29;20095;-85
2024/02/12 10:12:52;;;;;;;38.85;19.92;;;8.40;99.90;;;;;;4897678;29;20040;-85
2024/02/12 10:15:20;;;;;;;46.38;22.17;;;8.40;99.90;;;;;;4882071;29;20518;-83
2024/02/12 10:17:47;;;;;;;45.47;22.77;;;8.40;99.90;;;;;;4882411;29;20052;-85
2024/02/12 10:20:15;;;;;;;44.88;21.92;;;8.40;99.90;;;;;;4897097;29;20049;-85
2024/02/12 10:22:44;;;;;;;38.08;19.33;;;8.40;99.90;;;;;;4881771;29;20426;-83
2024/02/12 10:25:11;;;;;;;34.40;17.55;;;8.60;99.90;;;;;;4881776;29;20052;-84
2024/02/12 10:27:39;;;;;;;34.05;17.95;;;8.80;99.90;;;;;;4882174;29;20101;-84
2024/02/12 10:30:07;;;;;;;38.33;20.10;;;8.90;99.90;;;;;;4897354;29;20049;-86
2024/02/12 10:32:35;;;;;;;38.88;19.70;;;9.00;99.90;;;;;;4881632;29;20060;-84
2024/02/12 10:35:06;;;;;;;36.00;19.15;;;9.00;99.90;;;;;;4881523;29;20062;-83
2024/02/12 10:37:35;;;;;;;34.70;18.33;;;9.00;99.90;;;;;;4882549;29;20056;-87
2024/02/12 10:40:12;;;;;;;31.80;17.58;;;9.10;99.90;;;;;;4867159;29;20074;-87
2024/02/12 10:42:44;;;;;;;34.45;17.92;;;9.10;99.90;;;;;;4897290;29;20040;-82
2024/02/12 10:45:11;;;;;;;33.72;19.10;;;9.30;99.90;;;;;;4896756;29;20052;-83
2024/02/12 10:47:39;;;;;;;32.90;19.20;;;9.30;99.90;;;;;;4901230;29;20061;-87
2024/02/12 10:50:13;;;;;;;32.97;16.48;;;9.30;99.90;;;;;;4870516;29;20052;-87
2024/02/12 10:52:44;;;;;;;31.15;16.25;;;9.20;99.90;;;;;;4886275;29;20040;-87
2024/02/12 10:55:12;;;;;;;28.63;15.23;;;9.20;99.90;;;;;;4901217;29;20044;-87
2024/02/12 10:57:44;;;;;;;26.65;14.23;;;9.20;99.90;;;;;;4900840;29;20040;-87
2024/02/12 11:00:28;;;;;;;24.45;12.77;;;9.20;99.90;;;;;;4885693;29;20056;-85
2024/02/12 11:02:55;;;;;;;22.85;11.25;;;9.20;99.90;;;;;;4900272;29;20112;-84
2024/02/12 11:05:23;;;;;;;19.95;12.52;;;9.30;99.90;;;;;;4885098;29;20041;-85
2024/02/12 11:08:23;;;;;;;20.08;11.45;;;9.30;99.90;;;;;;4884532;29;20036;-84
2024/02/12 11:10:50;;;;;;;22.27;11.75;;;9.30;99.90;;;;;;4889657;29;20132;-84
2024/02/12 11:13:19;;;;;;;18.45;10.23;;;9.30;99.90;;;;;;4884572;29;20052;-84
2024/02/12 11:15:50;;;;;;;18.33;10.43;;;9.30;99.90;;;;;;4900310;29;20047;-86
2024/02/12 11:18:22;;;;;;;16.80;9.02;;;9.30;99.90;;;;;;4900415;29;20040;-86
2024/02/12 11:20:50;;;;;;;17.35;9.10;;;9.50;99.90;;;;;;4881721;29;20052;-86
2024/02/12 11:23:22;;;;;;;18.45;10.50;;;9.60;99.90;;;;;;4881974;29;20049;-87
2024/02/12 11:26:02;;;;;;;14.80;10.57;;;9.70;99.90;;;;;;4883186;29;20088;-86
2024/02/12 11:28:31;;;;;;;24.60;11.95;;;9.70;99.90;;;;;;4900435;29;20055;-86
2024/02/12 11:30:59;;;;;;;18.88;11.70;;;9.60;99.90;;;;;;4884729;29;20048;-86
2024/02/12 11:33:26;;;;;;;17.20;9.90;;;9.60;99.90;;;;;;4900392;29;20045;-87
2024/02/12 11:36:07;;;;;;;17.95;10.85;;;9.60;99.90;;;;;;4900158;29;20049;-88
2024/02/12 11:38:50;;;;;;;16.42;9.00;;;9.50;99.90;;;;;;4869590;29;20500;-84
2024/02/12 11:41:17;;;;;;;15.55;8.65;;;9.50;99.90;;;;;;4901194;29;20087;-84
2024/02/12 11:43:47;;;;;;;15.07;8.43;;;9.40;99.90;;;;;;4883271;29;20565;-83
2024/02/12 11:46:18;;;;;;;15.93;9.63;;;9.40;99.90;;;;;;4900185;29;20080;-81
2024/02/12 11:48:46;;;;;;;16.67;8.75;;;9.30;99.90;;;;;;4899589;29;20040;-91
2024/02/12 11:51:21;;;;;;;16.27;9.38;;;9.30;99.90;;;;;;4898935;29;20134;-83
2024/02/12 11:53:51;;;;;;;14.43;8.75;;;9.20;99.90;;;;;;4883555;29;20040;-85
2024/02/12 11:56:21;;;;;;;14.93;7.93;;;9.20;99.90;;;;;;4884532;29;20139;-84
2024/02/12 11:58:56;;;;;;;15.82;7.65;;;9.10;99.90;;;;;;4898719;29;20036;-84
2024/02/12 12:01:28;;;;;;;15.55;8.30;;;9.00;99.90;;;;;;4900578;29;20111;-85
2024/02/12 12:03:57;;;;;;;14.63;8.45;;;9.00;99.90;;;;;;4899312;29;20156;-85
2024/02/12 12:06:30;;;;;;;12.13;7.72;;;9.00;99.90;;;;;;4883843;29;20076;-84
2024/02/12 12:08:58;;;;;;;11.02;6.22;;;9.10;99.90;;;;;;4899051;29;20153;-84
2024/02/12 12:11:26;;;;;;;11.98;6.65;;;9.10;99.90;;;;;;4901368;29;20037;-85
2024/02/12 12:13:58;;;;;;;11.18;6.43;;;9.20;99.90;;;;;;4883672;29;20044;-82
2024/02/12 12:16:27;;;;;;;11.75;6.43;;;9.20;99.90;;;;;;4880467;29;20103;-82
2024/02/12 12:18:54;;;;;;;11.30;5.82;;;9.20;99.90;;;;;;4898626;29;20102;-84
2024/02/12 12:21:22;;;;;;;10.23;5.20;;;9.30;99.90;;;;;;4883149;29;20049;-84
2024/02/12 12:23:51;;;;;;;7.40;4.30;;;9.30;99.90;;;;;;4899423;29;20044;-82
2024/02/12 12:26:19;;;;;;;7.35;4.15;;;9.30;99.90;;;;;;4899412;29;20044;-83
2024/02/12 12:28:46;;;;;;;9.20;4.40;;;9.30;99.90;;;;;;4868478;29;20055;-83
2024/02/12 12:31:13;;;;;;;6.80;4.32;;;9.30;99.90;;;;;;4899141;29;20048;-82
2024/02/12 12:33:40;;;;;;;7.40;3.92;;;9.40;99.90;;;;;;4898724;29;20067;-81
2024/02/12 12:36:11;;;;;;;7.38;3.95;;;9.40;99.90;;;;;;4883728;29;20048;-82
2024/02/12 12:38:38;;;;;;;5.97;3.40;;;9.50;99.90;;;;;;4880201;29;20057;-84
2024/02/12 12:41:07;;;;;;;5.22;2.78;;;9.60;99.90;;;;;;4891317;29;20068;-83
2024/02/12 12:43:35;;;;;;;6.03;3.60;;;9.60;99.90;;;;;;4901749;29;20052;-83
2024/02/12 12:46:05;;;;;;;8.50;4.20;;;9.70;99.90;;;;;;4911835;29;20048;-79
2024/02/12 12:48:33;;;;;;;5.20;2.70;;;9.80;99.90;;;;;;4903471;29;20055;-81
2024/02/12 12:51:00;;;;;;;5.88;3.05;;;9.90;99.90;;;;;;4875969;29;20093;-84
2024/02/12 12:53:29;;;;;;;6.75;3.53;;;9.90;99.90;;;;;;4883734;29;20072;-85
2024/02/12 12:55:57;;;;;;;9.45;4.78;;;10.10;99.90;;;;;;4880337;29;20041;-81
2024/02/12 12:58:24;;;;;;;8.57;4.80;;;10.20;99.90;;;;;;4880844;29;20092;-85
2024/02/12 13:00:52;;;;;;;8.80;5.00;;;10.30;99.90;;;;;;4883113;29;20053;-83
2024/02/12 13:03:21;;;;;;;7.60;5.22;;;10.40;99.90;;;;;;4898782;29;20052;-83
2024/02/12 13:05:50;;;;;;;10.82;6.20;;;10.50;99.90;;;;;;4899602;29;20080;-84